createdAt,value
2022-08-18T00:02:17.157Z,4.88
2022-08-18T00:04:48.907Z,4.72
2022-08-18T00:07:22.206Z,4.97
2022-08-18T00:09:50.101Z,5.00
2022-08-18T00:12:23.033Z,4.82
2022-08-18T00:14:51.153Z,5.53
2022-08-18T00:17:19.161Z,5.53
2022-08-18T00:19:48.376Z,5.32
2022-08-18T00:22:18.612Z,5.90
2022-08-18T00:24:50.373Z,5.18
2022-08-18T00:27:23.686Z,4.95
2022-08-18T00:29:55.220Z,5.07
2022-08-18T00:32:25.802Z,5.30
2022-08-18T00:34:54.299Z,5.90
2022-08-18T00:37:23.280Z,5.07
2022-08-18T00:39:52.436Z,5.65
2022-08-18T00:42:27.292Z,5.30
2022-08-18T00:44:59.103Z,5.25
2022-08-18T00:47:41.274Z,4.85
2022-08-18T00:50:20.235Z,5.10
2022-08-18T00:52:55.420Z,4.85
2022-08-18T00:55:23.721Z,5.55
2022-08-18T00:57:55.626Z,5.65
2022-08-18T01:00:23.648Z,5.28
2022-08-18T01:02:55.289Z,5.32
2022-08-18T01:05:27.428Z,5.63
2022-08-18T01:07:56.186Z,5.75
2022-08-18T01:10:24.625Z,5.82
2022-08-18T01:12:56.011Z,5.82
2022-08-18T01:15:27.813Z,5.30
2022-08-18T01:18:13.818Z,5.35
2022-08-18T01:21:16.174Z,5.45
2022-08-18T01:23:46.348Z,5.10
2022-08-18T01:26:13.920Z,5.50
2022-08-18T01:28:44.525Z,6.07
2022-08-18T01:31:13.739Z,5.60
2022-08-18T01:33:44.200Z,5.75
2022-08-18T01:36:16.664Z,5.80
2022-08-18T01:38:47.168Z,4.88
2022-08-18T01:41:28.804Z,5.47
2022-08-18T01:43:58.419Z,5.43
2022-08-18T01:46:26.308Z,5.50
2022-08-18T01:48:54.267Z,5.03
2022-08-18T01:51:39.472Z,5.70
2022-08-18T01:54:12.690Z,6.20
2022-08-18T01:56:43.085Z,6.60
2022-08-18T01:59:13.526Z,6.15
2022-08-18T02:01:50.368Z,6.13
2022-08-18T02:04:35.169Z,6.38
2022-08-18T02:07:07.521Z,6.80
2022-08-18T02:09:37.300Z,5.75
2022-08-18T02:12:06.986Z,6.20
2022-08-18T02:14:34.741Z,6.00
2022-08-18T02:17:04.457Z,5.53
2022-08-18T02:19:34.713Z,6.35
2022-08-18T02:22:03.096Z,6.03
2022-08-18T02:24:31.105Z,5.88
2022-08-18T02:27:00.295Z,5.22
2022-08-18T02:29:29.854Z,5.80
2022-08-18T02:31:57.798Z,5.70
2022-08-18T02:34:25.562Z,5.43
2022-08-18T02:36:54.068Z,5.82
2022-08-18T02:39:21.987Z,6.32
2022-08-18T02:41:49.735Z,6.40
2022-08-18T02:44:18.820Z,5.75
2022-08-18T02:46:46.833Z,5.95
2022-08-18T02:49:14.526Z,5.75
2022-08-18T02:51:43.799Z,5.47
2022-08-18T02:54:11.533Z,5.50
2022-08-18T02:56:41.244Z,6.30
2022-08-18T02:59:17.573Z,5.82
2022-08-18T03:01:48.652Z,5.43
2022-08-18T03:04:21.144Z,5.65
2022-08-18T03:06:50.677Z,5.22
2022-08-18T03:09:18.740Z,5.32
2022-08-18T03:11:46.763Z,5.95
2022-08-18T03:14:15.057Z,5.70
2022-08-18T03:16:52.699Z,5.47
2022-08-18T03:19:24.545Z,5.93
2022-08-18T03:21:52.497Z,5.68
2022-08-18T03:24:22.798Z,5.15
2022-08-18T03:26:52.783Z,6.65
2022-08-18T03:29:20.595Z,5.57
2022-08-18T03:31:48.697Z,5.45
2022-08-18T03:34:19.561Z,4.65
2022-08-18T03:36:49.833Z,5.53
2022-08-18T03:39:18.750Z,5.35
2022-08-18T03:41:58.274Z,5.50
2022-08-18T03:44:31.849Z,5.38
2022-08-18T03:47:00.118Z,5.35
2022-08-18T03:49:30.294Z,5.70
2022-08-18T03:52:00.556Z,6.05
2022-08-18T03:54:31.905Z,5.55
2022-08-18T03:57:00.154Z,5.55
2022-08-18T03:59:30.545Z,5.40
2022-08-18T04:01:58.582Z,5.55
2022-08-18T04:04:28.742Z,6.13
2022-08-18T04:06:59.548Z,5.45
2022-08-18T04:09:28.844Z,5.10
2022-08-18T04:11:57.221Z,5.32
2022-08-18T04:14:28.773Z,5.70
2022-08-18T04:16:56.636Z,4.90
2022-08-18T04:19:27.396Z,4.82
2022-08-18T04:21:56.605Z,5.07
2022-08-18T04:24:27.932Z,5.03
2022-08-18T04:26:58.128Z,4.97
2022-08-18T04:29:25.999Z,4.82
2022-08-18T04:31:54.224Z,5.28
2022-08-18T04:34:23.257Z,4.68
2022-08-18T04:36:54.316Z,4.93
2022-08-18T04:39:22.796Z,4.68
2022-08-18T04:41:52.114Z,5.28
2022-08-18T04:44:21.599Z,5.50
2022-08-18T04:46:51.597Z,4.95
2022-08-18T04:49:21.247Z,5.18
2022-08-18T04:52:36.099Z,5.68
2022-08-18T04:54:58.176Z,5.13
2022-08-18T04:57:27.249Z,5.93
2022-08-18T04:59:55.071Z,5.80
2022-08-18T05:02:22.989Z,6.03
2022-08-18T05:04:52.519Z,5.70
2022-08-18T05:07:22.468Z,5.60
2022-08-18T05:09:51.861Z,5.55
2022-08-18T05:12:20.436Z,5.70
2022-08-18T05:14:56.825Z,6.00
2022-08-18T05:17:29.086Z,5.65
2022-08-18T05:19:58.720Z,5.88
2022-08-18T05:22:30.463Z,5.18
2022-08-18T05:24:58.552Z,5.78
2022-08-18T05:27:26.284Z,5.70
2022-08-18T05:29:55.351Z,6.00
2022-08-18T05:32:30.375Z,6.65
2022-08-18T05:35:14.074Z,6.60
2022-08-18T05:37:48.552Z,5.75
2022-08-18T05:40:16.598Z,6.05
2022-08-18T05:42:44.656Z,6.53
2022-08-18T05:45:17.473Z,6.40
2022-08-18T05:47:45.750Z,6.15
2022-08-18T05:50:17.297Z,6.72
2022-08-18T05:52:52.120Z,7.00
2022-08-18T05:55:45.929Z,6.90
2022-08-18T05:58:19.025Z,7.22
2022-08-18T06:00:58.776Z,7.05
2022-08-18T06:03:45.069Z,7.40
2022-08-18T06:06:17.493Z,8.23
2022-08-18T06:08:53.631Z,7.97
2022-08-18T06:11:22.661Z,7.30
2022-08-18T06:13:51.677Z,7.97
2022-08-18T06:16:36.146Z,6.60
2022-08-18T06:19:13.956Z,7.60
2022-08-18T06:21:47.270Z,7.45
2022-08-18T06:24:24.861Z,7.43
2022-08-18T06:26:59.279Z,8.10
2022-08-18T06:29:38.529Z,8.23
2022-08-18T06:32:14.277Z,7.63
2022-08-18T06:35:04.891Z,8.55
2022-08-18T06:37:58.291Z,8.68
2022-08-18T06:40:26.104Z,9.98
2022-08-18T06:42:53.869Z,10.48
2022-08-18T06:45:25.521Z,11.57
2022-08-18T06:48:15.316Z,12.55
2022-08-18T06:50:49.437Z,11.77
2022-08-18T06:53:27.282Z,13.02
2022-08-18T06:55:56.710Z,13.35
2022-08-18T06:58:29.821Z,12.93
2022-08-18T07:01:01.050Z,13.23
2022-08-18T07:03:45.395Z,12.45
2022-08-18T07:06:26.748Z,14.07
2022-08-18T07:08:56.765Z,12.90
2022-08-18T07:11:26.493Z,13.82
2022-08-18T07:14:14.980Z,13.52
2022-08-18T07:16:59.757Z,13.65
2022-08-18T07:19:32.297Z,14.82
2022-08-18T07:22:03.800Z,15.63
2022-08-18T07:24:33.225Z,15.82
2022-08-18T07:27:04.485Z,16.30
2022-08-18T07:29:34.300Z,14.70
2022-08-18T07:32:04.309Z,15.00
2022-08-18T07:34:37.454Z,16.08
2022-08-18T07:37:15.480Z,16.55
2022-08-18T07:39:47.408Z,15.45
2022-08-18T07:42:37.185Z,15.85
2022-08-18T07:45:13.750Z,15.68
2022-08-18T07:47:48.923Z,16.50
2022-08-18T07:50:36.374Z,16.80
2022-08-18T07:53:12.384Z,16.98
2022-08-18T07:55:46.681Z,17.05
2022-08-18T07:58:22.436Z,17.35
2022-08-18T08:00:59.115Z,16.75
2022-08-18T08:03:35.317Z,19.17
2022-08-18T08:06:11.584Z,17.83
2022-08-18T08:08:44.040Z,17.33
2022-08-18T08:11:22.021Z,19.95
2022-08-18T08:13:59.736Z,19.50
2022-08-18T08:16:38.271Z,19.25
2022-08-18T08:19:58.774Z,20.30
2022-08-18T08:22:25.417Z,20.25
2022-08-18T08:25:00.612Z,20.13
2022-08-18T08:27:42.301Z,20.52
2022-08-18T08:30:12.774Z,20.42
2022-08-18T08:32:51.629Z,19.50
2022-08-18T08:35:49.597Z,20.08
2022-08-18T08:38:39.467Z,20.60
2022-08-18T08:41:09.902Z,20.45
2022-08-18T08:43:41.009Z,21.75
2022-08-18T08:46:11.666Z,20.02
2022-08-18T08:48:42.796Z,19.50
2022-08-18T08:51:25.459Z,20.23
2022-08-18T08:54:05.609Z,18.65
2022-08-18T08:56:40.492Z,18.90
2022-08-18T08:59:11.485Z,21.58
2022-08-18T09:01:45.025Z,19.98
2022-08-18T09:04:22.515Z,20.30
2022-08-18T09:07:02.663Z,19.27
2022-08-18T09:09:49.984Z,19.50
2022-08-18T09:12:36.284Z,18.98
2022-08-18T09:15:19.995Z,17.75
2022-08-18T09:18:04.427Z,17.95
2022-08-18T09:20:49.537Z,18.38
2022-08-18T09:23:20.740Z,17.45
2022-08-18T09:25:53.009Z,18.50
2022-08-18T09:28:24.552Z,17.05
2022-08-18T09:31:15.389Z,17.02
2022-08-18T09:34:10.704Z,16.27
2022-08-18T09:36:49.107Z,15.93
2022-08-18T09:39:41.563Z,16.23
2022-08-18T09:42:14.239Z,15.65
2022-08-18T09:45:02.613Z,16.20
2022-08-18T09:48:08.770Z,17.00
2022-08-18T09:50:57.773Z,15.75
2022-08-18T09:53:39.731Z,15.98
2022-08-18T09:56:07.996Z,16.55
2022-08-18T09:58:52.646Z,16.23
2022-08-18T10:01:22.714Z,15.27
2022-08-18T10:04:33.455Z,15.30
2022-08-18T10:07:20.410Z,15.45
2022-08-18T10:10:59.053Z,16.23
2022-08-18T10:13:03.801Z,16.48
2022-08-18T10:15:39.297Z,14.85
2022-08-18T10:18:33.934Z,15.45
2022-08-18T10:21:09.933Z,14.80
2022-08-18T10:23:58.135Z,15.27
2022-08-18T10:27:10.778Z,15.10
2022-08-18T10:29:59.195Z,15.00
2022-08-18T10:32:52.113Z,14.30
2022-08-18T10:35:58.362Z,15.30
2022-08-18T10:38:32.579Z,13.60
2022-08-18T10:41:09.566Z,14.57
2022-08-18T10:43:55.342Z,16.25
2022-08-18T10:49:25.795Z,14.15
2022-08-18T10:52:21.035Z,12.70
2022-08-18T10:55:02.979Z,13.30
2022-08-18T10:57:37.370Z,13.25
2022-08-18T11:00:10.037Z,13.65
2022-08-18T11:03:42.660Z,12.07
2022-08-18T11:06:04.276Z,12.38
2022-08-18T11:08:36.901Z,13.07
2022-08-18T11:11:37.204Z,13.25
2022-08-18T11:14:15.766Z,12.82
2022-08-18T11:16:50.527Z,11.73
2022-08-18T11:19:23.218Z,12.32
2022-08-18T11:21:54.149Z,11.98
2022-08-18T11:24:25.037Z,11.63
2022-08-18T11:26:56.062Z,11.70
2022-08-18T11:29:28.702Z,12.30
2022-08-18T11:31:59.490Z,11.98
2022-08-18T11:34:33.278Z,12.02
2022-08-18T11:37:04.605Z,12.13
2022-08-18T11:39:43.956Z,12.13
2022-08-18T11:42:15.664Z,11.88
2022-08-18T11:44:49.740Z,10.45
2022-08-18T11:47:20.051Z,11.38
2022-08-18T11:49:59.382Z,10.45
2022-08-18T11:52:35.743Z,10.82
2022-08-18T11:58:39.280Z,9.93
2022-08-18T12:01:08.936Z,10.90
2022-08-18T12:03:42.695Z,9.68
2022-08-18T12:06:19.433Z,10.25
2022-08-18T12:08:59.373Z,9.80
2022-08-18T12:11:29.968Z,10.15
2022-08-18T12:14:01.797Z,10.30
2022-08-18T12:16:50.109Z,8.20
2022-08-18T12:19:19.637Z,9.18
2022-08-18T12:21:52.138Z,9.75
2022-08-18T12:24:26.412Z,9.55
2022-08-18T12:27:20.837Z,8.35
2022-08-18T12:29:50.364Z,8.35
2022-08-18T12:32:49.011Z,8.88
2022-08-18T12:35:09.503Z,8.02
2022-08-18T12:40:27.609Z,7.10
2022-08-18T12:42:55.953Z,6.38
2022-08-18T12:45:25.735Z,6.70
2022-08-18T12:47:54.914Z,7.60
2022-08-18T12:50:31.284Z,7.35
2022-08-18T12:53:04.810Z,7.22
2022-08-18T12:55:37.622Z,7.78
2022-08-18T12:58:12.119Z,7.25
2022-08-18T13:00:40.876Z,8.90
2022-08-18T13:03:09.153Z,7.63
2022-08-18T13:05:37.340Z,7.50
2022-08-18T13:08:08.258Z,8.05
2022-08-18T13:10:45.464Z,7.85
2022-08-18T13:13:16.038Z,7.90
2022-08-18T13:15:44.358Z,7.57
2022-08-18T13:18:28.617Z,7.95
2022-08-18T13:20:56.985Z,7.65
2022-08-18T13:23:25.296Z,7.03
2022-08-18T13:25:59.306Z,8.43
2022-08-18T13:28:35.659Z,7.65
2022-08-18T13:31:04.336Z,7.75
2022-08-18T13:33:57.834Z,7.07
2022-08-18T13:36:22.298Z,7.18
2022-08-18T13:38:54.745Z,6.68
2022-08-18T13:43:52.517Z,6.93
2022-08-18T13:46:24.303Z,7.22
2022-08-18T13:49:03.500Z,6.90
2022-08-18T13:51:31.637Z,6.97
2022-08-18T13:54:17.980Z,6.75
2022-08-18T13:56:51.536Z,6.80
2022-08-18T13:59:20.627Z,7.28
2022-08-18T14:01:51.714Z,7.28
2022-08-18T14:04:22.354Z,7.30
2022-08-18T14:06:56.943Z,7.68
2022-08-18T14:09:36.435Z,6.80
2022-08-18T14:12:21.773Z,6.97
2022-08-18T14:14:53.268Z,6.82
2022-08-18T14:17:22.269Z,6.47
2022-08-18T14:20:10.291Z,7.25
2022-08-18T14:23:00.204Z,6.82
2022-08-18T14:25:47.264Z,6.30
2022-08-18T14:28:18.600Z,6.03
2022-08-18T14:30:54.664Z,6.00
2022-08-18T14:33:34.230Z,5.70
2022-08-18T14:36:12.674Z,6.03
2022-08-18T14:38:41.177Z,5.57
2022-08-18T14:41:11.374Z,5.32
2022-08-18T14:44:10.993Z,5.78
2022-08-18T14:46:33.022Z,5.18
2022-08-18T14:49:04.285Z,5.97
2022-08-18T14:51:33.419Z,4.35
2022-08-18T14:54:02.946Z,5.40
2022-08-18T14:56:33.555Z,5.15
2022-08-18T14:59:07.559Z,5.55
2022-08-18T15:01:36.896Z,5.45
2022-08-18T15:04:19.154Z,5.40
2022-08-18T15:06:55.908Z,5.05
2022-08-18T15:09:24.351Z,5.20
2022-08-18T15:11:55.797Z,4.68
2022-08-18T15:14:32.751Z,5.20
2022-08-18T15:17:01.629Z,5.10
2022-08-18T15:19:57.596Z,5.00
2022-08-18T15:22:35.120Z,4.20
2022-08-18T15:25:24.273Z,4.30
2022-08-18T15:27:52.988Z,4.25
2022-08-18T15:30:22.544Z,4.70
2022-08-18T15:32:51.099Z,4.60
2022-08-18T15:35:19.808Z,4.40
2022-08-18T15:37:51.386Z,4.28
2022-08-18T15:40:31.226Z,4.65
2022-08-18T15:43:10.076Z,4.53
2022-08-18T15:45:56.380Z,4.50
2022-08-18T15:48:27.925Z,4.07
2022-08-18T15:50:55.704Z,4.75
2022-08-18T15:53:25.443Z,4.68
2022-08-18T15:55:57.820Z,5.00
2022-08-18T15:58:26.788Z,4.22
2022-08-18T16:00:59.090Z,4.38
2022-08-18T16:03:29.010Z,4.88
2022-08-18T16:05:56.710Z,4.97
2022-08-18T16:08:26.252Z,5.20
2022-08-18T16:10:57.748Z,4.70
2022-08-18T16:13:26.312Z,4.65
2022-08-18T16:15:54.073Z,5.13
2022-08-18T16:18:23.099Z,5.20
2022-08-18T16:21:12.270Z,4.80
2022-08-18T16:23:40.892Z,4.78
2022-08-18T16:26:09.219Z,5.25
2022-08-18T16:28:37.003Z,4.28
2022-08-18T16:31:05.836Z,4.78
2022-08-18T16:33:34.891Z,4.72
2022-08-18T16:36:08.212Z,4.53
2022-08-18T16:38:36.872Z,5.13
2022-08-18T16:41:11.319Z,6.00
2022-08-18T16:43:44.284Z,7.20
2022-08-18T16:46:12.668Z,6.85
2022-08-18T16:48:41.777Z,7.70
2022-08-18T16:51:16.631Z,7.78
2022-08-18T16:53:45.536Z,7.68
2022-08-18T16:56:14.669Z,8.30
2022-08-18T16:58:59.859Z,7.95
2022-08-18T17:01:53.608Z,7.50
2022-08-18T17:04:24.615Z,7.05
2022-08-18T17:06:52.527Z,6.88
2022-08-18T17:09:20.686Z,7.20
2022-08-18T17:11:52.055Z,6.45
2022-08-18T17:14:22.103Z,6.70
2022-08-18T17:16:53.008Z,5.95
2022-08-18T17:19:23.007Z,6.82
2022-08-18T17:21:50.546Z,6.75
2022-08-18T17:24:31.218Z,6.75
2022-08-18T17:27:11.844Z,6.03
2022-08-18T17:29:45.805Z,6.13
2022-08-18T17:32:19.991Z,6.15
2022-08-18T17:34:53.823Z,5.85
2022-08-18T17:37:23.852Z,6.10
2022-08-18T17:39:55.199Z,6.75
2022-08-18T17:42:31.015Z,6.22
2022-08-18T17:45:01.099Z,6.05
2022-08-18T17:47:35.756Z,6.18
2022-08-18T17:50:31.147Z,6.00
2022-08-18T17:53:05.140Z,5.30
2022-08-18T17:55:40.013Z,6.00
2022-08-18T17:58:13.403Z,5.30
2022-08-18T18:00:42.116Z,5.18
2022-08-18T18:03:12.788Z,5.15
2022-08-18T18:05:44.415Z,5.75
2022-08-18T18:08:11.970Z,5.10
2022-08-18T18:11:02.180Z,4.68
2022-08-18T18:13:32.341Z,4.97
2022-08-18T18:16:02.620Z,4.70
2022-08-18T18:18:41.154Z,5.10
2022-08-18T18:21:21.549Z,5.35
2022-08-18T18:23:50.996Z,4.80
2022-08-18T18:26:36.784Z,5.20
2022-08-18T18:29:20.411Z,5.43
2022-08-18T18:31:58.510Z,4.63
2022-08-18T18:34:39.281Z,4.88
2022-08-18T18:37:25.244Z,4.78
2022-08-18T18:39:57.432Z,5.22
2022-08-18T18:42:26.557Z,4.97
2022-08-18T18:44:56.252Z,4.85
2022-08-18T18:47:47.318Z,5.00
2022-08-18T18:50:21.361Z,5.20
2022-08-18T18:52:59.633Z,5.60
2022-08-18T18:55:29.284Z,5.55
2022-08-18T18:58:13.822Z,5.00
2022-08-18T19:00:53.583Z,5.30
2022-08-18T19:03:25.119Z,5.93
2022-08-18T19:06:08.792Z,6.03
2022-08-18T19:08:45.419Z,5.03
2022-08-18T19:11:18.076Z,5.63
2022-08-18T19:13:54.264Z,6.25
2022-08-18T19:16:26.154Z,5.57
2022-08-18T19:18:59.743Z,6.10
2022-08-18T19:22:04.134Z,6.35
2022-08-18T19:24:38.415Z,6.03
2022-08-18T19:27:08.810Z,6.20
2022-08-18T19:29:41.324Z,5.88
2022-08-18T19:32:16.325Z,5.88
2022-08-18T19:34:51.452Z,6.05
2022-08-18T19:37:30.929Z,5.90
2022-08-18T19:40:09.515Z,5.82
2022-08-18T19:42:41.877Z,6.72
2022-08-18T19:45:17.148Z,6.80
2022-08-18T19:47:50.153Z,6.63
2022-08-18T19:50:23.639Z,7.35
2022-08-18T19:53:05.283Z,6.57
2022-08-18T19:55:43.942Z,7.07
2022-08-18T19:58:31.761Z,7.15
2022-08-18T20:01:05.809Z,7.07
2022-08-18T20:03:54.327Z,7.50
2022-08-18T20:06:48.176Z,7.07
2022-08-18T20:09:28.911Z,7.38
2022-08-18T20:12:09.117Z,8.00
2022-08-18T20:14:39.228Z,6.97
2022-08-18T20:17:16.618Z,7.28
2022-08-18T20:19:50.715Z,7.63
2022-08-18T20:22:33.756Z,7.20
2022-08-18T20:25:06.583Z,7.35
2022-08-18T20:27:38.693Z,7.32
2022-08-18T20:30:28.392Z,7.07
2022-08-18T20:33:30.472Z,7.45
2022-08-18T20:36:25.465Z,8.60
2022-08-18T20:38:54.491Z,8.23
2022-08-18T20:41:41.255Z,8.10
2022-08-18T20:44:37.333Z,8.43
2022-08-18T20:47:17.184Z,7.93
2022-08-18T20:49:55.151Z,9.73
2022-08-18T20:52:30.147Z,7.80
2022-08-18T20:55:11.361Z,8.07
2022-08-18T20:57:39.912Z,8.25
2022-08-18T21:00:15.607Z,7.28
2022-08-18T21:02:48.935Z,7.28
2022-08-18T21:05:27.984Z,6.85
2022-08-18T21:08:03.281Z,6.40
2022-08-18T21:10:32.272Z,6.10
2022-08-18T21:13:00.938Z,5.38
2022-08-18T21:15:31.707Z,5.47
2022-08-18T21:18:03.115Z,5.50
2022-08-18T21:20:32.000Z,5.30
2022-08-18T21:23:06.393Z,5.63
2022-08-18T21:25:34.080Z,5.38
2022-08-18T21:28:03.859Z,4.53
2022-08-18T21:30:33.209Z,5.18
2022-08-18T21:33:03.404Z,4.65
2022-08-18T21:35:33.617Z,4.75
2022-08-18T21:38:05.522Z,5.07
2022-08-18T21:40:39.259Z,4.45
2022-08-18T21:43:09.564Z,4.22
2022-08-18T21:45:47.428Z,4.28
2022-08-18T21:48:16.020Z,4.28
2022-08-18T21:50:51.206Z,4.22
2022-08-18T21:53:21.908Z,4.80
2022-08-18T21:55:51.364Z,4.28
2022-08-18T21:58:21.359Z,4.10
2022-08-18T22:01:17.249Z,3.72
2022-08-18T22:03:53.875Z,4.15
2022-08-18T22:06:30.697Z,4.32
2022-08-18T22:09:20.264Z,4.40
2022-08-18T22:12:05.603Z,16.23
2022-08-18T22:14:54.514Z,4.35
2022-08-18T22:17:35.814Z,4.25
2022-08-18T22:20:39.069Z,4.18
2022-08-18T22:23:41.726Z,4.03
2022-08-18T22:26:12.302Z,4.60
2022-08-18T22:28:49.756Z,5.15
2022-08-18T22:31:21.124Z,4.45
2022-08-18T22:33:51.096Z,3.95
2022-08-18T22:36:21.703Z,4.88
2022-08-18T22:39:08.589Z,4.18
2022-08-18T22:41:36.401Z,3.97
2022-08-18T22:44:08.040Z,4.57
2022-08-18T22:46:36.282Z,4.22
2022-08-18T22:49:06.588Z,4.20
2022-08-18T22:51:37.084Z,4.32
2022-08-18T22:54:08.288Z,4.95
2022-08-18T22:56:37.998Z,4.57
2022-08-18T22:59:16.100Z,4.63
2022-08-18T23:01:50.216Z,5.10
2022-08-18T23:04:21.485Z,5.15
2022-08-18T23:06:51.981Z,5.30
2022-08-18T23:09:21.486Z,4.93
2022-08-18T23:11:49.041Z,5.07
2022-08-18T23:14:16.848Z,5.18
2022-08-18T23:16:45.347Z,5.28
2022-08-18T23:19:14.319Z,5.60
2022-08-18T23:21:43.387Z,5.00
2022-08-18T23:24:13.635Z,5.05
2022-08-18T23:26:41.664Z,5.22
2022-08-18T23:29:11.409Z,5.65
2022-08-18T23:31:40.214Z,4.75
2022-08-18T23:34:08.335Z,4.70
2022-08-18T23:36:37.344Z,4.93
2022-08-18T23:39:06.575Z,4.97
2022-08-18T23:41:34.520Z,5.45
2022-08-18T23:44:02.024Z,5.07
2022-08-18T23:46:32.799Z,4.90
2022-08-18T23:49:03.101Z,5.65
2022-08-18T23:51:33.276Z,5.03
2022-08-18T23:54:07.640Z,5.03
2022-08-18T23:56:37.724Z,5.10
2022-08-18T23:59:06.552Z,5.80
